createdAt,value
2022-09-07T00:00:42.643Z,70.38
2022-09-07T00:01:46.469Z,70.60
2022-09-07T00:02:48.152Z,70.92
2022-09-07T00:03:51.120Z,70.96
2022-09-07T00:04:53.269Z,71.03
2022-09-07T00:05:57.237Z,71.50
2022-09-07T00:06:58.960Z,71.59
2022-09-07T00:08:01.532Z,71.65
2022-09-07T00:09:04.144Z,71.58
2022-09-07T00:10:07.931Z,71.85
2022-09-07T00:11:13.210Z,71.50
2022-09-07T00:12:15.775Z,71.80
2022-09-07T00:13:17.388Z,71.91
2022-09-07T00:14:19.964Z,71.76
2022-09-07T00:15:21.560Z,72.09
2022-09-07T00:16:28.387Z,71.98
2022-09-07T00:17:29.960Z,72.26
2022-09-07T00:18:32.834Z,72.32
2022-09-07T00:19:34.469Z,72.57
2022-09-07T00:20:37.446Z,73.03
2022-09-07T00:21:40.398Z,72.78
2022-09-07T00:22:43.170Z,72.56
2022-09-07T00:23:45.523Z,72.77
2022-09-07T00:24:48.088Z,73.16
2022-09-07T00:25:53.916Z,73.22
2022-09-07T00:26:57.045Z,73.44
2022-09-07T00:27:58.825Z,73.35
2022-09-07T00:29:03.658Z,73.65
2022-09-07T00:30:06.697Z,73.37
2022-09-07T00:31:11.994Z,73.80
2022-09-07T00:32:13.640Z,73.88
2022-09-07T00:33:16.228Z,73.65
2022-09-07T00:34:17.846Z,73.87
2022-09-07T00:35:20.418Z,74.29
2022-09-07T00:36:22.763Z,74.22
2022-09-07T00:37:26.659Z,74.67
2022-09-07T00:38:28.354Z,75.02
2022-09-07T00:39:31.076Z,75.11
2022-09-07T00:40:32.674Z,75.16
2022-09-07T00:41:35.237Z,75.37
2022-09-07T00:42:36.862Z,75.92
2022-09-07T00:43:41.976Z,75.95
2022-09-07T00:45:10.206Z,76.15
2022-09-07T00:46:14.533Z,76.06
2022-09-07T00:47:21.906Z,76.44
2022-09-07T00:48:27.798Z,76.70
2022-09-07T00:49:31.063Z,77.10
2022-09-07T00:50:38.234Z,77.25
2022-09-07T00:51:47.309Z,76.89
2022-09-07T00:52:56.769Z,77.23
2022-09-07T00:54:03.689Z,77.00
2022-09-07T00:55:10.032Z,77.16
2022-09-07T00:56:13.979Z,77.10
2022-09-07T00:57:15.727Z,77.33
2022-09-07T00:58:20.722Z,77.18
2022-09-07T00:59:26.228Z,77.26
2022-09-07T01:00:29.118Z,77.47
2022-09-07T01:01:31.466Z,77.51
2022-09-07T01:02:34.408Z,77.55
2022-09-07T01:03:40.872Z,77.55
2022-09-07T01:04:45.199Z,77.45
2022-09-07T01:05:51.772Z,77.10
2022-09-07T01:06:56.122Z,77.18
2022-09-07T01:10:16.294Z,77.10
2022-09-07T01:11:20.732Z,77.46
2022-09-07T01:12:23.404Z,77.45
2022-09-07T01:13:25.059Z,77.56
2022-09-07T01:14:32.819Z,77.71
2022-09-07T01:15:43.684Z,77.82
2022-09-07T01:17:00.549Z,77.77
2022-09-07T01:18:11.062Z,77.68
2022-09-07T01:19:40.331Z,77.31
2022-09-07T01:21:02.598Z,77.61
2022-09-07T01:22:23.634Z,77.39
2022-09-07T01:23:56.022Z,77.83
2022-09-07T01:25:05.594Z,77.73
2022-09-07T01:26:28.363Z,77.98
2022-09-07T01:27:53.917Z,77.62
2022-09-07T01:29:02.116Z,77.61
2022-09-07T01:30:07.394Z,77.65
2022-09-07T01:31:14.076Z,77.85
2022-09-07T01:32:26.102Z,78.16
2022-09-07T01:33:45.361Z,78.33
2022-09-07T01:34:52.762Z,78.16
2022-09-07T01:36:04.712Z,78.11
2022-09-07T01:37:15.014Z,78.40
2022-09-07T01:38:24.623Z,78.42
2022-09-07T01:39:32.846Z,78.56
2022-09-07T01:40:43.312Z,78.43
2022-09-07T01:41:50.221Z,78.62
2022-09-07T01:43:00.104Z,78.61
2022-09-07T01:44:06.577Z,78.69
2022-09-07T01:45:13.921Z,78.74
2022-09-07T01:46:22.760Z,79.00
2022-09-07T01:47:29.700Z,78.56
2022-09-07T01:48:36.977Z,78.94
2022-09-07T01:49:43.355Z,78.65
2022-09-07T01:50:50.975Z,78.92
2022-09-07T01:51:57.973Z,78.84
2022-09-07T01:53:07.219Z,79.07
2022-09-07T01:54:15.148Z,79.22
2022-09-07T01:55:22.525Z,79.16
2022-09-07T01:56:30.676Z,79.27
2022-09-07T01:57:38.183Z,79.06
2022-09-07T01:58:44.765Z,79.26
2022-09-07T01:59:52.317Z,78.99
2022-09-07T02:00:58.180Z,79.35
2022-09-07T02:02:06.574Z,79.09
2022-09-07T02:03:14.309Z,79.51
2022-09-07T02:04:20.897Z,79.17
2022-09-07T02:05:28.275Z,79.38
2022-09-07T02:06:38.398Z,79.36
2022-09-07T02:07:45.261Z,78.99
2022-09-07T02:08:52.541Z,79.15
2022-09-07T02:09:59.375Z,79.49
2022-09-07T02:11:08.463Z,79.27
2022-09-07T02:12:17.505Z,79.29
2022-09-07T02:13:25.821Z,79.53
2022-09-07T02:14:35.380Z,78.99
2022-09-07T02:15:44.555Z,79.34
2022-09-07T02:16:54.492Z,79.17
2022-09-07T02:18:03.256Z,79.28
2022-09-07T02:19:10.697Z,79.42
2022-09-07T02:20:19.864Z,79.52
2022-09-07T02:21:26.518Z,79.73
2022-09-07T02:22:34.742Z,79.59
2022-09-07T02:23:40.696Z,79.84
2022-09-07T02:24:47.951Z,79.75
2022-09-07T02:25:55.133Z,79.95
2022-09-07T02:27:00.567Z,80.05
2022-09-07T02:28:08.521Z,80.11
2022-09-07T02:29:11.133Z,80.05
2022-09-07T02:30:14.426Z,79.85
2022-09-07T02:31:17.167Z,80.24
2022-09-07T02:32:19.124Z,79.78
2022-09-07T02:33:21.997Z,79.81
2022-09-07T02:34:24.133Z,79.73
2022-09-07T02:35:26.984Z,80.24
2022-09-07T02:36:33.720Z,80.10
2022-09-07T02:37:38.555Z,79.89
2022-09-07T02:38:40.170Z,79.81
2022-09-07T02:39:42.835Z,80.35
2022-09-07T02:40:50.608Z,80.17
2022-09-07T02:41:53.180Z,80.35
2022-09-07T02:42:57.009Z,80.17
2022-09-07T02:44:00.599Z,80.14
2022-09-07T02:45:06.314Z,80.00
2022-09-07T02:46:23.676Z,80.04
2022-09-07T02:47:33.722Z,80.18
2022-09-07T02:48:43.400Z,79.98
2022-09-07T02:50:31.049Z,80.03
2022-09-07T02:51:45.261Z,80.02
2022-09-07T02:53:02.651Z,80.00
2022-09-07T02:54:17.322Z,79.96
2022-09-07T02:55:28.006Z,79.75
2022-09-07T02:56:45.110Z,79.91
2022-09-07T02:57:56.299Z,79.92
2022-09-07T02:59:07.453Z,80.08
2022-09-07T03:00:12.953Z,80.05
2022-09-07T03:01:26.930Z,80.10
2022-09-07T03:02:35.746Z,80.66
2022-09-07T03:03:46.736Z,80.11
2022-09-07T03:04:54.576Z,80.34
2022-09-07T03:06:01.726Z,80.68
2022-09-07T03:07:09.663Z,80.66
2022-09-07T03:08:15.635Z,80.72
2022-09-07T03:09:22.084Z,80.69
2022-09-07T03:10:24.447Z,81.15
2022-09-07T03:11:27.318Z,81.09
2022-09-07T03:12:39.737Z,81.10
2022-09-07T03:13:42.389Z,80.83
2022-09-07T03:14:44.471Z,81.23
2022-09-07T03:15:47.112Z,81.42
2022-09-07T03:16:53.385Z,80.99
2022-09-07T03:17:56.036Z,81.22
2022-09-07T03:18:57.641Z,81.22
2022-09-07T03:20:00.357Z,81.57
2022-09-07T03:21:01.925Z,81.65
2022-09-07T03:22:05.025Z,81.71
2022-09-07T03:23:06.640Z,81.40
2022-09-07T03:24:09.656Z,81.26
2022-09-07T03:25:11.377Z,81.32
2022-09-07T03:26:25.065Z,81.23
2022-09-07T03:27:26.748Z,81.28
2022-09-07T03:28:29.373Z,81.67
2022-09-07T03:29:31.011Z,81.40
2022-09-07T03:30:33.999Z,81.59
2022-09-07T03:31:36.012Z,81.37
2022-09-07T03:32:40.361Z,81.85
2022-09-07T03:33:42.010Z,81.57
2022-09-07T03:34:44.732Z,81.91
2022-09-07T03:35:56.422Z,81.92
2022-09-07T03:36:59.106Z,82.00
2022-09-07T03:38:01.685Z,81.62
2022-09-07T03:39:04.795Z,81.45
2022-09-07T03:40:09.251Z,82.09
2022-09-07T03:41:12.675Z,82.13
2022-09-07T03:42:14.228Z,82.02
2022-09-07T03:43:17.611Z,82.14
2022-09-07T03:44:19.290Z,81.79
2022-09-07T03:45:21.835Z,82.03
2022-09-07T03:46:23.498Z,82.25
2022-09-07T03:47:26.130Z,82.21
2022-09-07T03:48:31.111Z,82.13
2022-09-07T03:49:33.762Z,82.27
2022-09-07T03:50:35.357Z,82.33
2022-09-07T03:51:37.932Z,82.12
2022-09-07T03:52:39.579Z,82.06
2022-09-07T03:53:44.057Z,82.29
2022-09-07T03:54:45.974Z,82.09
2022-09-07T03:55:56.977Z,82.10
2022-09-07T03:56:59.545Z,81.69
2022-09-07T03:58:01.147Z,82.52
2022-09-07T03:59:03.802Z,82.51
2022-09-07T04:00:06.382Z,82.54
2022-09-07T04:01:17.052Z,81.88
2022-09-07T04:02:18.850Z,82.44
2022-09-07T04:03:21.530Z,82.44
2022-09-07T04:04:24.534Z,82.34
2022-09-07T04:05:27.085Z,82.09
2022-09-07T04:06:29.652Z,82.35
2022-09-07T04:07:32.264Z,82.10
2022-09-07T04:08:35.328Z,82.38
2022-09-07T04:09:37.908Z,82.40
2022-09-07T04:10:40.468Z,82.23
2022-09-07T04:11:43.519Z,82.65
2022-09-07T04:12:45.117Z,82.59
2022-09-07T04:13:47.923Z,82.35
2022-09-07T04:14:49.493Z,82.61
2022-09-07T04:15:53.995Z,82.62
2022-09-07T04:16:55.884Z,82.56
2022-09-07T04:17:58.932Z,82.65
2022-09-07T04:19:00.703Z,82.57
2022-09-07T04:20:05.347Z,82.76
2022-09-07T04:21:07.245Z,82.73
2022-09-07T04:22:09.762Z,83.07
2022-09-07T04:23:11.627Z,83.05
2022-09-07T04:24:14.462Z,82.53
2022-09-07T04:25:16.688Z,82.79
2022-09-07T04:26:21.946Z,82.78
2022-09-07T04:27:23.561Z,82.58
2022-09-07T04:28:26.256Z,82.69
2022-09-07T04:29:28.132Z,83.07
2022-09-07T04:30:30.786Z,83.00
2022-09-07T04:31:33.926Z,82.55
2022-09-07T04:32:36.485Z,82.93
2022-09-07T04:33:38.093Z,82.58
2022-09-07T04:34:40.686Z,83.18
2022-09-07T04:35:43.670Z,83.09
2022-09-07T04:36:46.234Z,82.71
2022-09-07T04:37:47.878Z,82.58
2022-09-07T04:38:55.862Z,82.75
2022-09-07T04:39:57.525Z,83.07
2022-09-07T04:41:01.593Z,82.62
2022-09-07T04:42:03.513Z,83.20
2022-09-07T04:43:08.098Z,83.12
2022-09-07T04:44:16.102Z,82.65
2022-09-07T04:45:18.524Z,82.62
2022-09-07T04:46:23.413Z,82.83
2022-09-07T04:47:25.192Z,82.92
2022-09-07T04:48:27.824Z,82.92
2022-09-07T04:49:29.420Z,82.80
2022-09-07T04:50:32.385Z,83.14
2022-09-07T04:51:36.129Z,82.63
2022-09-07T04:52:38.852Z,83.06
2022-09-07T04:53:40.487Z,82.67
2022-09-07T04:54:43.217Z,82.99
2022-09-07T04:55:44.794Z,83.21
2022-09-07T04:56:47.486Z,82.90
2022-09-07T04:57:49.839Z,82.54
2022-09-07T04:58:52.958Z,82.89
2022-09-07T04:59:56.557Z,83.15
2022-09-07T05:01:01.865Z,82.73
2022-09-07T05:02:04.339Z,82.56
2022-09-07T05:03:07.275Z,83.06
2022-09-07T05:04:09.232Z,82.91
2022-09-07T05:05:12.416Z,83.14
2022-09-07T05:06:18.030Z,82.45
2022-09-07T05:07:22.153Z,82.65
2022-09-07T05:08:24.017Z,82.56
2022-09-07T05:09:27.621Z,83.19
2022-09-07T05:10:29.353Z,82.68
2022-09-07T05:11:35.181Z,83.08
2022-09-07T05:12:38.644Z,83.05
2022-09-07T05:13:41.544Z,82.79
2022-09-07T05:14:44.673Z,82.78
2022-09-07T05:15:53.860Z,82.62
2022-09-07T05:16:55.917Z,82.93
2022-09-07T05:17:59.182Z,82.79
2022-09-07T05:19:04.776Z,82.82
2022-09-07T05:20:08.533Z,82.40
2022-09-07T05:21:12.523Z,82.75
2022-09-07T05:22:15.287Z,82.69
2022-09-07T05:23:20.408Z,82.83
2022-09-07T05:24:26.412Z,82.48
2022-09-07T05:25:28.982Z,82.68
2022-09-07T05:26:34.515Z,82.89
2022-09-07T05:27:36.208Z,82.84
2022-09-07T05:28:39.714Z,82.71
2022-09-07T05:31:21.726Z,82.89
2022-09-07T05:32:24.512Z,82.68
2022-09-07T05:34:52.898Z,82.57
2022-09-07T05:35:56.890Z,82.70
2022-09-07T05:36:59.597Z,82.57
2022-09-07T05:38:01.268Z,82.38
2022-09-07T05:39:08.426Z,82.52
2022-09-07T05:40:11.324Z,82.98
2022-09-07T05:41:14.946Z,82.65
2022-09-07T05:42:17.548Z,82.47
2022-09-07T05:43:19.408Z,82.46
2022-09-07T05:45:44.034Z,82.56
2022-09-07T05:46:46.798Z,82.47
2022-09-07T05:47:50.691Z,82.57
2022-09-07T05:48:52.365Z,82.39
2022-09-07T05:49:57.383Z,82.00
2022-09-07T05:50:59.310Z,82.20
2022-09-07T05:52:02.183Z,81.98
2022-09-07T05:53:03.962Z,81.99
2022-09-07T05:54:08.335Z,82.13
2022-09-07T05:55:28.839Z,82.01
2022-09-07T05:56:35.561Z,82.02
2022-09-07T05:57:37.422Z,81.76
2022-09-07T05:58:41.091Z,81.50
2022-09-07T05:59:43.235Z,81.46
2022-09-07T06:00:46.196Z,81.32
2022-09-07T06:01:47.896Z,81.32
2022-09-07T06:02:54.678Z,81.21
2022-09-07T06:03:56.942Z,81.18
2022-09-07T06:04:59.627Z,81.05
2022-09-07T06:06:02.937Z,81.05
2022-09-07T06:07:20.994Z,80.93
2022-09-07T06:08:24.123Z,80.49
2022-09-07T06:09:30.311Z,80.65
2022-09-07T06:11:45.314Z,80.06
2022-09-07T06:12:49.230Z,80.12
2022-09-07T06:13:52.920Z,79.74
2022-09-07T06:14:54.787Z,79.94
2022-09-07T06:16:01.001Z,79.55
2022-09-07T06:17:02.806Z,79.49
2022-09-07T06:18:05.488Z,79.19
2022-09-07T06:19:09.129Z,79.42
2022-09-07T06:20:10.925Z,79.24
2022-09-07T06:21:14.851Z,79.72
2022-09-07T06:22:17.168Z,79.87
2022-09-07T06:23:19.776Z,79.91
2022-09-07T06:24:21.418Z,79.77
2022-09-07T06:25:25.428Z,79.51
2022-09-07T06:26:27.057Z,79.96
2022-09-07T06:27:29.683Z,79.71
2022-09-07T06:28:34.051Z,79.73
2022-09-07T06:29:35.638Z,80.13
2022-09-07T06:30:38.169Z,79.73
2022-09-07T06:33:02.591Z,80.01
2022-09-07T06:34:04.290Z,80.16
2022-09-07T06:35:07.457Z,80.04
2022-09-07T06:36:13.122Z,80.78
2022-09-07T06:37:14.736Z,80.46
2022-09-07T06:38:17.338Z,80.38
2022-09-07T06:39:18.925Z,80.32
2022-09-07T06:40:22.759Z,80.08
2022-09-07T06:42:52.266Z,79.92
2022-09-07T06:43:54.849Z,80.00
2022-09-07T06:44:58.509Z,79.80
2022-09-07T06:47:23.212Z,79.51
2022-09-07T06:48:25.547Z,79.27
2022-09-07T06:49:28.150Z,79.17
2022-09-07T06:50:29.749Z,79.10
2022-09-07T06:51:32.471Z,79.38
2022-09-07T06:55:20.240Z,78.78
2022-09-07T06:56:23.543Z,78.50
2022-09-07T06:57:27.160Z,78.58
2022-09-07T06:58:29.799Z,78.36
2022-09-07T06:59:31.447Z,78.30
2022-09-07T07:00:34.163Z,78.21
2022-09-07T07:01:36.692Z,78.37
2022-09-07T07:02:38.281Z,77.81
2022-09-07T07:03:41.634Z,78.05
2022-09-07T07:04:43.273Z,77.81
2022-09-07T07:05:51.756Z,77.60
2022-09-07T07:06:53.345Z,77.95
2022-09-07T07:07:56.305Z,77.68
2022-09-07T07:08:57.860Z,77.99
2022-09-07T07:10:00.445Z,77.69
2022-09-07T07:11:04.407Z,77.17
2022-09-07T07:12:06.192Z,77.59
2022-09-07T07:13:10.467Z,77.21
2022-09-07T07:14:14.844Z,77.04
2022-09-07T07:15:17.501Z,77.09
2022-09-07T07:16:19.374Z,76.90
2022-09-07T07:17:22.078Z,76.82
2022-09-07T07:18:23.638Z,76.82
2022-09-07T07:19:26.207Z,76.46
2022-09-07T07:20:28.533Z,76.34
2022-09-07T07:21:42.872Z,76.43
2022-09-07T07:22:53.649Z,76.25
2022-09-07T07:23:56.214Z,75.89
2022-09-07T07:24:57.888Z,76.03
2022-09-07T07:26:03.209Z,75.88
2022-09-07T07:27:04.798Z,75.63
2022-09-07T07:29:31.675Z,75.52
2022-09-07T07:30:33.314Z,75.69
2022-09-07T07:31:36.981Z,75.42
2022-09-07T07:32:38.572Z,75.06
2022-09-07T07:33:41.387Z,74.98
2022-09-07T07:34:43.121Z,74.91
2022-09-07T07:35:45.605Z,75.05
2022-09-07T07:36:47.161Z,74.69
2022-09-07T07:40:39.737Z,74.97
2022-09-07T07:42:03.002Z,74.63
2022-09-07T07:43:07.549Z,74.53
2022-09-07T07:44:09.450Z,74.54
2022-09-07T07:46:36.043Z,74.24
2022-09-07T07:47:38.201Z,74.57
2022-09-07T07:48:41.826Z,74.39
2022-09-07T07:49:43.412Z,74.63
2022-09-07T07:50:45.953Z,74.41
2022-09-07T07:54:33.942Z,75.06
2022-09-07T07:55:45.391Z,75.10
2022-09-07T07:56:48.120Z,75.12
2022-09-07T07:57:50.641Z,75.44
2022-09-07T07:58:53.524Z,75.76
2022-09-07T07:59:55.647Z,76.01
2022-09-07T08:01:04.907Z,76.33
2022-09-07T08:02:08.556Z,76.50
2022-09-07T08:03:10.631Z,76.48
2022-09-07T08:04:13.135Z,76.86
2022-09-07T08:05:16.981Z,76.87
2022-09-07T08:06:21.437Z,77.19
2022-09-07T08:07:23.004Z,77.70
2022-09-07T08:08:25.543Z,77.84
2022-09-07T08:09:28.162Z,77.59
2022-09-07T08:10:30.497Z,77.94
2022-09-07T08:11:34.232Z,78.21
2022-09-07T08:12:37.714Z,78.26
2022-09-07T08:13:42.347Z,78.41
2022-09-07T08:14:44.454Z,78.26
2022-09-07T08:15:47.263Z,78.19
2022-09-07T08:16:50.524Z,78.34
2022-09-07T08:17:53.148Z,78.58
2022-09-07T08:18:59.836Z,78.48
2022-09-07T08:20:03.794Z,78.07
2022-09-07T08:21:07.866Z,78.25
2022-09-07T08:22:10.745Z,78.00
2022-09-07T08:23:13.333Z,78.15
2022-09-07T08:24:14.850Z,78.56
2022-09-07T08:25:18.375Z,78.36
2022-09-07T08:26:20.967Z,78.80
2022-09-07T08:27:22.559Z,78.58
2022-09-07T08:28:25.556Z,78.73
2022-09-07T08:29:31.267Z,78.85
2022-09-07T08:30:38.898Z,78.84
2022-09-07T08:31:41.457Z,78.75
2022-09-07T08:32:44.413Z,78.80
2022-09-07T08:33:46.932Z,78.57
2022-09-07T08:34:48.492Z,78.24
2022-09-07T08:35:58.749Z,78.07
2022-09-07T08:37:00.268Z,77.57
2022-09-07T08:38:02.784Z,77.52
2022-09-07T08:39:04.375Z,77.50
2022-09-07T08:40:07.940Z,77.49
2022-09-07T08:41:41.510Z,77.68
2022-09-07T08:42:58.708Z,77.58
2022-09-07T08:44:03.293Z,77.55
2022-09-07T08:45:09.497Z,77.56
2022-09-07T08:46:23.021Z,77.46
2022-09-07T08:47:33.327Z,77.47
2022-09-07T08:48:38.087Z,77.34
2022-09-07T08:49:46.225Z,77.69
2022-09-07T08:50:53.084Z,77.25
2022-09-07T08:51:59.747Z,77.18
2022-09-07T08:53:06.500Z,77.15
2022-09-07T08:54:14.047Z,77.03
2022-09-07T08:55:22.207Z,76.58
2022-09-07T08:56:33.595Z,76.57
2022-09-07T08:57:41.448Z,76.49
2022-09-07T08:58:49.852Z,76.11
2022-09-07T08:59:57.402Z,75.89
2022-09-07T09:05:22.740Z,75.51
2022-09-07T09:06:10.831Z,75.78
2022-09-07T09:06:35.757Z,75.30
2022-09-07T09:07:48.378Z,75.43
2022-09-07T09:09:08.068Z,75.11
2022-09-07T09:10:20.177Z,75.02
2022-09-07T09:11:34.740Z,74.92
2022-09-07T09:12:55.019Z,74.78
2022-09-07T09:14:04.393Z,74.66
2022-09-07T09:15:18.041Z,74.72
2022-09-07T09:16:29.700Z,74.77
2022-09-07T09:17:35.599Z,74.46
2022-09-07T09:18:53.495Z,74.56
2022-09-07T09:20:03.009Z,74.42
2022-09-07T09:21:09.673Z,73.94
2022-09-07T09:22:14.490Z,73.75
2022-09-07T09:23:19.371Z,73.68
2022-09-07T09:24:30.714Z,73.43
2022-09-07T09:25:36.537Z,73.47
2022-09-07T09:26:42.039Z,72.88
2022-09-07T09:27:44.619Z,73.01
2022-09-07T09:28:48.203Z,72.82
2022-09-07T09:29:50.744Z,73.13
2022-09-07T09:30:52.637Z,73.18
2022-09-07T09:31:55.305Z,73.19
2022-09-07T09:33:14.311Z,73.04
2022-09-07T09:34:23.668Z,73.22
2022-09-07T09:35:32.449Z,73.27
2022-09-07T09:36:41.020Z,73.14
2022-09-07T09:37:43.713Z,73.19
2022-09-07T09:38:46.245Z,73.45
2022-09-07T09:40:02.239Z,73.71
2022-09-07T09:41:08.047Z,73.59
2022-09-07T09:42:23.152Z,73.73
2022-09-07T09:43:27.273Z,73.42
2022-09-07T09:44:35.381Z,73.22
2022-09-07T09:47:34.290Z,73.47
2022-09-07T09:48:40.264Z,73.33
2022-09-07T09:49:45.414Z,73.49
2022-09-07T09:52:43.417Z,72.82
2022-09-07T09:53:51.513Z,72.86
2022-09-07T09:55:03.351Z,72.74
2022-09-07T09:56:14.668Z,72.50
2022-09-07T09:57:17.220Z,72.81
2022-09-07T10:00:07.001Z,72.83
2022-09-07T10:01:24.843Z,72.47
2022-09-07T10:06:02.456Z,72.17
2022-09-07T10:07:14.912Z,72.29
2022-09-07T10:08:20.283Z,71.88
2022-09-07T10:09:24.667Z,71.74
2022-09-07T10:10:28.732Z,71.33
2022-09-07T10:13:08.727Z,71.19
2022-09-07T10:14:18.442Z,70.86
2022-09-07T10:15:29.863Z,70.88
2022-09-07T10:16:39.151Z,70.35
2022-09-07T10:17:43.876Z,70.06
2022-09-07T10:18:55.443Z,69.97
2022-09-07T10:20:03.479Z,70.17
2022-09-07T10:21:23.911Z,69.96
2022-09-07T10:22:32.899Z,69.72
2022-09-07T10:23:35.454Z,69.51
2022-09-07T10:24:39.836Z,69.91
2022-09-07T10:25:44.327Z,69.69
2022-09-07T10:26:48.509Z,69.19
2022-09-07T10:28:02.245Z,69.34
2022-09-07T10:29:16.900Z,69.56
2022-09-07T10:30:19.822Z,69.45
2022-09-07T10:31:31.370Z,69.15
2022-09-07T10:32:49.160Z,69.12
2022-09-07T10:35:27.721Z,68.87
2022-09-07T10:36:40.226Z,69.33
2022-09-07T10:37:53.384Z,68.56
2022-09-07T10:39:03.107Z,68.49
2022-09-07T10:40:20.752Z,68.58
2022-09-07T10:41:38.216Z,68.51
2022-09-07T10:44:20.091Z,67.98
2022-09-07T10:45:31.765Z,68.17
2022-09-07T10:46:57.256Z,67.54
2022-09-07T10:48:08.934Z,67.36
2022-09-07T10:49:19.915Z,67.75
2022-09-07T10:50:31.960Z,66.81
2022-09-07T10:51:41.478Z,67.19
2022-09-07T10:52:51.361Z,66.86
2022-09-07T10:55:27.920Z,66.89
2022-09-07T10:56:36.626Z,66.86
2022-09-07T10:57:51.648Z,66.04
2022-09-07T10:59:07.021Z,65.75
2022-09-07T11:00:12.049Z,65.78
2022-09-07T11:01:23.746Z,66.13
2022-09-07T11:02:33.013Z,66.20
2022-09-07T11:03:54.045Z,65.91
2022-09-07T11:05:04.523Z,65.88
2022-09-07T11:06:14.780Z,65.11
2022-09-07T11:07:33.325Z,65.38
2022-09-07T11:10:19.086Z,65.43
2022-09-07T11:12:00.741Z,64.73
2022-09-07T11:12:52.538Z,64.36
2022-09-07T11:14:12.456Z,64.42
2022-09-07T11:15:22.295Z,63.97
2022-09-07T11:17:53.650Z,63.98
2022-09-07T11:20:28.642Z,64.45
2022-09-07T11:23:11.311Z,64.61
2022-09-07T11:24:26.278Z,64.37
2022-09-07T11:25:36.231Z,64.45
2022-09-07T11:26:42.345Z,63.86
2022-09-07T11:27:48.012Z,63.77
2022-09-07T11:30:21.887Z,63.86
2022-09-07T11:31:27.199Z,63.29
2022-09-07T11:32:33.334Z,63.63
2022-09-07T11:35:19.158Z,62.95
2022-09-07T11:36:22.634Z,62.43
2022-09-07T11:37:30.808Z,62.62
2022-09-07T11:38:36.195Z,62.24
2022-09-07T11:39:43.084Z,62.68
2022-09-07T11:40:57.989Z,61.97
2022-09-07T11:42:42.644Z,62.86
2022-09-07T11:43:31.611Z,62.75
2022-09-07T11:44:46.790Z,62.27
2022-09-07T11:45:53.688Z,61.48
2022-09-07T11:47:03.434Z,61.17
2022-09-07T11:48:19.443Z,60.80
2022-09-07T11:49:23.062Z,61.11
2022-09-07T11:50:27.530Z,60.58
2022-09-07T11:51:39.970Z,59.91
2022-09-07T11:52:53.642Z,59.79
2022-09-07T11:53:59.837Z,60.38
2022-09-07T11:55:07.321Z,60.08
2022-09-07T11:56:13.881Z,60.00
2022-09-07T11:57:34.830Z,60.11
2022-09-07T11:59:10.259Z,60.65
2022-09-07T12:00:19.478Z,60.82
2022-09-07T12:01:32.158Z,60.84
2022-09-07T12:02:59.341Z,61.07
2022-09-07T12:04:24.788Z,60.87
2022-09-07T12:05:45.697Z,61.18
2022-09-07T12:07:26.401Z,60.91
2022-09-07T12:08:51.232Z,61.14
2022-09-07T12:10:09.739Z,60.90
2022-09-07T12:11:31.361Z,61.26
2022-09-07T12:12:50.710Z,60.19
2022-09-07T12:14:27.688Z,60.09
2022-09-07T12:15:36.183Z,59.77
2022-09-07T12:16:55.615Z,60.18
2022-09-07T12:18:14.373Z,59.61
2022-09-07T12:19:19.196Z,60.05
2022-09-07T12:20:25.526Z,59.90
2022-09-07T12:21:31.729Z,59.54
2022-09-07T12:22:35.233Z,59.00
2022-09-07T12:23:45.698Z,59.65
2022-09-07T12:24:51.252Z,58.66
2022-09-07T12:26:13.665Z,59.36
2022-09-07T12:27:39.497Z,58.38
2022-09-07T12:29:06.004Z,58.54
2022-09-07T12:30:51.744Z,58.51
2022-09-07T12:31:59.818Z,57.84
2022-09-07T12:33:22.900Z,58.28
2022-09-07T12:34:58.808Z,58.04
2022-09-07T12:36:02.042Z,57.28
2022-09-07T12:37:36.398Z,57.22
2022-09-07T12:39:07.051Z,57.35
2022-09-07T12:40:44.676Z,57.70
2022-09-07T12:42:31.901Z,57.01
2022-09-07T12:43:32.003Z,57.43
2022-09-07T12:44:35.910Z,57.43
2022-09-07T12:45:49.646Z,56.93
2022-09-07T12:46:57.464Z,56.49
2022-09-07T12:48:04.520Z,56.94
2022-09-07T12:49:18.421Z,56.08
2022-09-07T12:50:29.767Z,55.97
2022-09-07T12:53:25.230Z,56.23
2022-09-07T12:54:34.655Z,55.63
2022-09-07T12:56:17.591Z,56.10
2022-09-07T12:57:32.709Z,55.46
2022-09-07T12:58:52.221Z,55.40
2022-09-07T13:00:05.300Z,55.67
2022-09-07T13:01:23.666Z,54.92
2022-09-07T13:02:51.677Z,54.00
2022-09-07T13:04:12.905Z,53.60
2022-09-07T13:05:25.688Z,52.94
2022-09-07T13:08:15.261Z,52.50
2022-09-07T13:09:35.309Z,52.61
2022-09-07T13:10:40.436Z,51.87
2022-09-07T13:11:42.530Z,51.60
2022-09-07T13:12:53.152Z,51.96
2022-09-07T13:14:04.224Z,51.67
2022-09-07T13:15:14.630Z,51.31
2022-09-07T13:16:29.967Z,51.35
2022-09-07T13:17:42.336Z,51.70
2022-09-07T13:18:46.357Z,51.74
2022-09-07T13:20:18.224Z,51.01
2022-09-07T13:21:42.550Z,51.33
2022-09-07T13:23:08.514Z,50.96
2022-09-07T13:24:50.383Z,51.09
2022-09-07T13:25:59.898Z,50.76
2022-09-07T13:27:05.992Z,50.64
2022-09-07T13:28:19.532Z,50.37
2022-09-07T13:29:27.876Z,50.38
2022-09-07T13:30:46.521Z,50.57
2022-09-07T13:32:03.619Z,49.89
2022-09-07T13:33:45.907Z,49.84
2022-09-07T13:35:04.960Z,50.24
2022-09-07T13:36:19.190Z,50.48
2022-09-07T13:37:23.850Z,49.94
2022-09-07T13:38:25.955Z,49.87
2022-09-07T13:39:29.947Z,49.15
2022-09-07T13:40:37.015Z,48.97
2022-09-07T13:41:44.499Z,48.98
2022-09-07T13:42:47.231Z,49.31
2022-09-07T13:43:51.070Z,48.74
2022-09-07T13:44:58.615Z,48.75
2022-09-07T13:46:02.681Z,48.88
2022-09-07T13:47:14.148Z,48.47
2022-09-07T13:48:25.242Z,48.72
2022-09-07T13:49:55.737Z,48.90
2022-09-07T13:51:07.510Z,48.86
2022-09-07T13:52:15.750Z,48.50
2022-09-07T13:53:42.623Z,48.97
2022-09-07T13:54:55.079Z,48.51
2022-09-07T13:56:08.746Z,48.94
2022-09-07T13:57:19.711Z,48.63
2022-09-07T13:58:28.921Z,48.20
2022-09-07T13:59:33.799Z,48.07
2022-09-07T14:00:36.608Z,48.61
2022-09-07T14:01:45.537Z,48.21
2022-09-07T14:02:56.337Z,48.20
2022-09-07T14:04:06.418Z,48.03
2022-09-07T14:05:10.396Z,48.19
2022-09-07T14:06:27.046Z,47.88
2022-09-07T14:07:30.603Z,47.54
2022-09-07T14:08:35.723Z,47.47
2022-09-07T14:09:42.089Z,47.30
2022-09-07T14:10:48.340Z,47.85
2022-09-07T14:11:57.494Z,47.24
2022-09-07T14:13:07.801Z,47.67
2022-09-07T14:14:14.671Z,47.20
2022-09-07T14:15:23.598Z,47.30
2022-09-07T14:16:25.250Z,47.62
2022-09-07T14:17:28.958Z,46.60
2022-09-07T14:18:32.084Z,46.94
2022-09-07T14:19:39.107Z,47.08
2022-09-07T14:20:43.977Z,46.80
2022-09-07T14:21:58.281Z,46.47
2022-09-07T14:23:00.981Z,46.38
2022-09-07T14:24:04.214Z,46.39
2022-09-07T14:25:09.095Z,46.80
2022-09-07T14:26:17.964Z,46.34
2022-09-07T14:27:27.459Z,46.00
2022-09-07T14:28:30.489Z,46.56
2022-09-07T14:29:35.623Z,46.26
2022-09-07T14:30:38.004Z,46.10
2022-09-07T14:31:40.764Z,45.51
2022-09-07T14:32:43.968Z,46.06
2022-09-07T14:33:51.994Z,45.60
2022-09-07T14:34:53.990Z,45.42
2022-09-07T14:35:57.841Z,45.05
2022-09-07T14:37:04.010Z,44.94
2022-09-07T14:38:14.250Z,45.54
2022-09-07T14:39:19.464Z,45.55
2022-09-07T14:40:24.410Z,45.59
2022-09-07T14:41:31.974Z,45.61
2022-09-07T14:42:35.869Z,45.52
2022-09-07T14:43:51.309Z,45.84
2022-09-07T14:45:18.303Z,45.49
2022-09-07T14:46:24.047Z,45.43
2022-09-07T14:47:29.665Z,45.81
2022-09-07T14:48:34.346Z,45.63
2022-09-07T14:49:37.295Z,45.96
2022-09-07T14:50:41.232Z,46.12
2022-09-07T14:51:48.381Z,45.85
2022-09-07T14:54:19.850Z,46.33
2022-09-07T14:55:30.495Z,46.66
2022-09-07T14:56:34.697Z,46.70
2022-09-07T14:57:38.660Z,46.67
2022-09-07T14:58:41.233Z,46.47
2022-09-07T14:59:45.177Z,46.28
2022-09-07T15:01:37.146Z,46.11
2022-09-07T15:02:23.925Z,46.83
2022-09-07T15:03:28.751Z,46.86
2022-09-07T15:04:31.154Z,47.00
2022-09-07T15:05:34.400Z,46.55
2022-09-07T15:08:02.697Z,47.08
2022-09-07T15:09:06.443Z,47.19
2022-09-07T15:10:26.424Z,47.07
2022-09-07T15:11:33.672Z,47.23
2022-09-07T15:12:43.962Z,47.45
2022-09-07T15:13:55.013Z,47.02
2022-09-07T15:14:56.619Z,47.14
2022-09-07T15:16:01.255Z,47.78
2022-09-07T15:18:57.925Z,47.38
2022-09-07T15:19:59.544Z,47.17
2022-09-07T15:21:02.417Z,47.52
2022-09-07T15:22:13.392Z,47.20
2022-09-07T15:23:16.791Z,46.86
2022-09-07T15:24:19.406Z,47.25
2022-09-07T15:25:21.205Z,46.97
2022-09-07T15:27:51.329Z,47.06